Time;durP1;ratioP1;P1;durP2;ratioP2;P2;SDS_P1;SDS_P2;PMS_P1;PMS_P2;Temp;Humidity;BMP_temperature;BMP_pressure;BME280_temperature;BME280_humidity;BME280_pressure;Samples;Min_cycle;Max_cycle;Signal;HPM_P1;HPM_P2
2022/01/27 00:03:17;;;;;;;35.77;14.90;;;6.10;99.90;;;;;;5068755;28;20574;-71
2022/01/27 00:05:51;;;;;;;30.40;13.63;;;6.10;99.90;;;;;;5071686;28;20314;-70
2022/01/27 00:08:23;;;;;;;31.70;14.45;;;6.10;99.90;;;;;;5060646;28;20048;-70
2022/01/27 00:11:01;;;;;;;32.78;14.57;;;6.10;99.90;;;;;;5073348;28;20070;-70
2022/01/27 00:13:31;;;;;;;34.08;14.68;;;6.10;99.90;;;;;;5063866;28;20093;-71
2022/01/27 00:16:11;;;;;;;37.40;14.45;;;6.10;99.90;;;;;;5064968;28;20093;-71
2022/01/27 00:18:38;;;;;;;29.88;14.07;;;6.10;99.90;;;;;;5071060;28;20047;-70
2022/01/27 00:21:03;;;;;;;36.88;14.60;;;6.10;99.90;;;;;;5069166;28;20040;-68
2022/01/27 00:23:30;;;;;;;37.83;15.10;;;6.10;99.90;;;;;;5058214;28;20128;-69
2022/01/27 00:25:56;;;;;;;39.03;15.15;;;6.10;99.90;;;;;;5062493;28;20044;-69
2022/01/27 00:28:21;;;;;;;39.95;16.25;;;6.00;99.90;;;;;;5062390;28;20037;-70
2022/01/27 00:30:47;;;;;;;32.55;14.80;;;6.00;99.90;;;;;;5063770;28;20140;-70
2022/01/27 00:33:13;;;;;;;31.52;13.90;;;6.00;99.90;;;;;;5072177;28;20048;-70
2022/01/27 00:35:38;;;;;;;38.67;16.73;;;6.00;99.90;;;;;;5067018;28;20070;-69
2022/01/27 00:38:04;;;;;;;35.90;16.85;;;6.00;99.90;;;;;;5062333;28;20486;-70
2022/01/27 00:40:30;;;;;;;34.55;15.48;;;6.00;99.90;;;;;;5066407;28;20128;-70
2022/01/27 00:42:56;;;;;;;37.80;14.95;;;6.00;99.90;;;;;;5068234;28;20036;-69
2022/01/27 00:45:23;;;;;;;29.08;13.35;;;6.00;99.90;;;;;;5071256;28;20555;-71
2022/01/27 00:47:49;;;;;;;34.63;14.95;;;6.00;99.90;;;;;;5054169;28;20052;-70
2022/01/27 00:50:17;;;;;;;37.55;15.57;;;6.00;99.90;;;;;;5063310;28;20032;-71
2022/01/27 00:52:49;;;;;;;38.63;16.55;;;5.90;99.90;;;;;;5062010;28;20115;-70
2022/01/27 00:55:15;;;;;;;33.10;15.52;;;5.90;99.90;;;;;;5064374;28;20052;-69
2022/01/27 01:00:26;;;;;;;39.55;14.48;;;5.90;99.90;;;;;;5063323;28;20135;-68
2022/01/27 01:05:45;;;;;;;37.58;15.73;;;5.90;99.90;;;;;;5065660;28;20506;-70
2022/01/27 01:09:17;;;;;;;33.30;15.35;;;5.90;99.90;;;;;;5069323;28;20089;-70
2022/01/27 01:16:35;;;;;;;31.92;14.88;;;5.90;99.90;;;;;;5071518;28;20506;-70
2022/01/27 01:22:01;;;;;;;39.58;15.77;;;5.90;99.90;;;;;;5069585;28;20083;-69
2022/01/27 01:29:27;;;;;;;35.35;15.45;;;5.80;99.90;;;;;;5061163;28;20095;-69
2022/01/27 01:30:33;;;;;;;34.15;16.60;;;5.80;99.90;;;;;;5065328;28;20052;-71
2022/01/27 01:32:56;;;;;;;34.95;16.38;;;5.70;99.90;;;;;;5069358;28;20048;-70
2022/01/27 01:35:28;;;;;;;31.83;15.27;;;5.70;99.90;;;;;;5067896;28;20045;-70
2022/01/27 01:37:58;;;;;;;35.25;15.95;;;5.60;99.90;;;;;;5064712;28;20059;-70
2022/01/27 01:40:24;;;;;;;39.25;17.05;;;5.70;99.90;;;;;;5061599;28;20478;-70
2022/01/27 01:42:50;;;;;;;37.15;15.98;;;5.60;99.90;;;;;;5061163;28;20072;-70
2022/01/27 01:45:18;;;;;;;36.53;16.05;;;5.60;99.90;;;;;;5068095;28;20037;-70
2022/01/27 01:47:44;;;;;;;;;;;5.60;99.90;;;;;;5072567;28;20790;-70
2022/01/27 01:50:11;;;;;;;37.03;17.65;;;6.00;99.90;;;;;;5073509;28;20348;-70
2022/01/27 01:52:38;;;;;;;39.58;17.80;;;5.50;99.90;;;;;;5071185;28;20064;-72
2022/01/27 01:55:05;;;;;;;42.25;16.92;;;5.50;99.90;;;;;;5042791;28;20041;-70
2022/01/27 01:57:30;;;;;;;45.40;18.48;;;5.60;99.90;;;;;;5059043;28;20079;-70
2022/01/27 01:59:57;;;;;;;39.42;18.15;;;5.60;99.90;;;;;;5068030;28;20059;-70
2022/01/27 02:02:23;;;;;;;38.42;18.42;;;5.60;99.90;;;;;;5067008;28;20090;-70
2022/01/27 02:04:48;;;;;;;42.17;17.83;;;5.60;99.90;;;;;;5076741;28;20469;-69
2022/01/27 02:07:35;;;;;;;39.55;18.92;;;5.60;99.90;;;;;;5075746;28;20074;-70
2022/01/27 02:17:58;;;;;;;38.92;17.92;;;5.60;99.90;;;;;;5069892;28;20033;-69
2022/01/27 02:18:25;;;;;;;46.50;17.90;;;5.60;99.90;;;;;;5064346;28;20040;-69
2022/01/27 02:20:51;;;;;;;41.28;18.00;;;5.60;99.90;;;;;;5067019;28;20166;-69
2022/01/27 02:23:17;;;;;;;38.30;17.52;;;5.60;99.90;;;;;;5063914;28;20185;-69
2022/01/27 02:25:43;;;;;;;35.35;17.17;;;5.60;99.90;;;;;;5071896;28;20037;-69
2022/01/27 02:28:09;;;;;;;40.03;18.85;;;5.60;99.90;;;;;;5074016;28;20037;-68
2022/01/27 02:30:34;;;;;;;39.45;18.90;;;5.60;99.90;;;;;;5074014;28;20049;-68
2022/01/27 02:33:00;;;;;;;37.95;19.90;;;5.70;99.90;;;;;;5069520;28;20509;-70
2022/01/27 02:35:29;;;;;;;37.17;18.30;;;5.70;99.90;;;;;;5074781;28;20037;-71
2022/01/27 02:37:54;;;;;;;;;;;5.70;99.90;;;;;;5059120;28;20048;-71
2022/01/27 02:40:36;;;;;;;34.90;18.35;;;5.70;99.90;;;;;;5070441;28;19924;-68
2022/01/27 02:43:05;;;;;;;43.97;19.27;;;5.70;99.90;;;;;;5071669;28;20418;-72
2022/01/27 02:45:54;;;;;;;41.30;19.27;;;5.70;99.90;;;;;;5072816;28;20040;-69
2022/01/27 02:48:20;;;;;;;41.28;19.38;;;5.70;99.90;;;;;;5057861;28;20472;-69
2022/01/27 02:50:46;;;;;;;34.72;17.90;;;5.80;99.90;;;;;;5061694;28;20044;-69
2022/01/27 02:53:12;;;;;;;41.67;19.95;;;5.80;99.90;;;;;;5067874;28;20442;-68
2022/01/27 02:55:37;;;;;;;34.50;18.50;;;5.80;99.90;;;;;;5068806;28;20044;-70
2022/01/27 02:58:04;;;;;;;43.40;19.80;;;5.80;99.90;;;;;;5060194;28;20040;-70
2022/01/27 03:00:32;;;;;;;37.13;19.85;;;5.80;99.90;;;;;;5059288;28;20521;-72
2022/01/27 03:02:57;;;;;;;45.30;20.88;;;5.80;99.90;;;;;;5064982;28;20056;-70
2022/01/27 03:05:23;;;;;;;40.92;20.83;;;5.70;99.90;;;;;;5058434;28;20045;-70
2022/01/27 03:07:50;;;;;;;50.25;20.42;;;5.80;99.90;;;;;;5059667;28;20386;-71
2022/01/27 03:10:17;;;;;;;43.65;20.13;;;5.80;99.90;;;;;;5065186;28;20517;-71
2022/01/27 03:12:44;;;;;;;42.22;21.05;;;5.80;99.90;;;;;;5072678;28;20147;-72
2022/01/27 03:15:11;;;;;;;39.20;20.48;;;5.80;99.90;;;;;;5064332;28;20045;-70
2022/01/27 03:17:38;;;;;;;40.75;19.80;;;5.80;99.90;;;;;;5062463;28;20645;-70
2022/01/27 03:20:08;;;;;;;41.50;20.95;;;5.80;99.90;;;;;;5060138;28;20051;-70
2022/01/27 03:22:34;;;;;;;41.53;19.48;;;5.80;99.90;;;;;;5051830;28;20080;-68
2022/01/27 03:24:59;;;;;;;48.60;20.65;;;5.80;99.90;;;;;;5076703;28;20056;-69
2022/01/27 03:27:27;;;;;;;41.95;20.02;;;5.80;99.90;;;;;;5075831;28;20033;-68
2022/01/27 03:29:52;;;;;;;38.88;19.58;;;5.80;99.90;;;;;;5061515;28;20140;-67
2022/01/27 03:32:20;;;;;;;43.03;20.35;;;5.90;99.90;;;;;;5068459;28;20080;-69
2022/01/27 03:34:46;;;;;;;45.10;20.88;;;5.80;99.90;;;;;;5066478;28;20514;-70
2022/01/27 03:37:12;;;;;;;44.05;19.88;;;5.90;99.90;;;;;;5069155;28;20051;-69
2022/01/27 03:39:39;;;;;;;48.75;21.00;;;5.90;99.90;;;;;;5063615;28;20128;-69
2022/01/27 03:42:06;;;;;;;41.05;19.33;;;5.80;99.90;;;;;;5065494;28;20136;-69
2022/01/27 03:44:32;;;;;;;47.75;20.98;;;5.80;99.90;;;;;;5066360;28;20036;-70
2022/01/27 03:46:57;;;;;;;52.67;20.38;;;5.90;99.90;;;;;;5070017;28;20490;-70
2022/01/27 03:49:24;;;;;;;39.42;20.02;;;5.90;99.90;;;;;;5069301;28;20044;-69
2022/01/27 03:51:50;;;;;;;38.85;19.20;;;5.90;99.90;;;;;;5076192;28;20118;-69
2022/01/27 03:54:17;;;;;;;41.78;19.27;;;5.90;99.90;;;;;;5066593;28;20041;-69
2022/01/27 03:56:43;;;;;;;44.15;19.05;;;5.90;99.90;;;;;;5070329;28;20032;-68
2022/01/27 03:59:09;;;;;;;42.22;19.25;;;5.90;99.90;;;;;;5068919;28;20109;-69
2022/01/27 04:01:35;;;;;;;43.75;19.20;;;5.90;99.90;;;;;;5072153;28;20046;-69
2022/01/27 04:04:01;;;;;;;48.58;18.95;;;5.90;99.90;;;;;;5074069;28;20395;-69
2022/01/27 04:06:35;;;;;;;37.13;18.50;;;5.90;99.90;;;;;;5076002;28;20044;-71
2022/01/27 04:09:03;;;;;;;41.42;18.20;;;5.90;99.90;;;;;;5057173;28;20458;-69
2022/01/27 04:11:29;;;;;;;37.97;18.77;;;5.90;99.90;;;;;;5060614;28;20070;-70
2022/01/27 04:13:55;;;;;;;39.15;18.17;;;5.90;99.90;;;;;;5072928;28;20119;-69
2022/01/27 04:16:21;;;;;;;46.38;19.80;;;5.90;99.90;;;;;;5065234;28;20037;-71
2022/01/27 04:18:47;;;;;;;41.03;17.80;;;5.90;99.90;;;;;;5067682;28;20433;-71
2022/01/27 04:21:14;;;;;;;36.60;17.40;;;5.90;99.90;;;;;;5070092;28;20059;-70
2022/01/27 04:23:40;;;;;;;44.92;18.90;;;6.00;99.90;;;;;;5072611;28;20041;-68
2022/01/27 04:26:07;;;;;;;36.42;18.05;;;6.00;99.90;;;;;;5065879;28;20413;-69
2022/01/27 04:28:35;;;;;;;43.25;17.95;;;6.00;99.90;;;;;;5067344;28;20084;-71
2022/01/27 04:31:04;;;;;;;39.63;17.67;;;6.00;99.90;;;;;;5063562;28;20116;-70
2022/01/27 04:33:32;;;;;;;40.05;18.35;;;6.00;99.90;;;;;;5069589;28;20076;-69
2022/01/27 04:36:01;;;;;;;46.95;18.73;;;6.00;99.90;;;;;;5071094;28;20494;-70
2022/01/27 04:38:34;;;;;;;45.05;18.30;;;6.10;99.90;;;;;;5073170;28;20044;-69
2022/01/27 04:41:10;;;;;;;38.50;17.55;;;6.00;99.90;;;;;;5071170;28;20049;-68
2022/01/27 04:48:33;;;;;;;42.28;18.08;;;6.00;99.90;;;;;;5060446;28;20044;-69
2022/01/27 04:51:05;;;;;;;44.85;17.77;;;6.00;99.90;;;;;;5068753;28;20041;-70
2022/01/27 04:53:38;;;;;;;38.63;18.30;;;6.00;99.90;;;;;;5070373;28;20044;-70
2022/01/27 04:56:06;;;;;;;43.33;19.35;;;6.00;99.90;;;;;;5061106;28;20135;-70
2022/01/27 04:58:34;;;;;;;43.33;17.10;;;6.00;99.90;;;;;;5074641;28;20040;-69
2022/01/27 05:01:02;;;;;;;44.47;18.33;;;6.00;99.90;;;;;;5061917;28;20071;-71
2022/01/27 05:05:59;;;;;;;46.20;18.90;;;6.10;99.90;;;;;;5067629;28;20613;-71
2022/01/27 05:08:25;;;;;;;48.10;19.55;;;6.00;99.90;;;;;;5068230;28;20116;-72
2022/01/27 05:10:58;;;;;;;42.97;19.33;;;6.00;99.90;;;;;;5058093;28;20471;-70
2022/01/27 05:13:27;;;;;;;44.17;18.63;;;5.90;99.90;;;;;;5069514;28;20109;-69
2022/01/27 05:15:53;;;;;;;55.70;20.33;;;6.00;99.90;;;;;;5055775;28;20041;-70
2022/01/27 05:18:20;;;;;;;51.40;19.83;;;5.90;99.90;;;;;;5056716;28;20041;-70
2022/01/27 05:20:46;;;;;;;47.35;19.08;;;5.90;99.90;;;;;;5066797;28;20637;-71
2022/01/27 05:23:12;;;;;;;47.53;19.58;;;5.90;99.90;;;;;;5066471;28;20593;-71
2022/01/27 05:25:39;;;;;;;52.92;19.00;;;5.90;99.90;;;;;;5068353;28;20393;-69
2022/01/27 05:28:06;;;;;;;43.65;19.23;;;5.90;99.90;;;;;;5069797;28;20117;-71
2022/01/27 05:30:33;;;;;;;44.83;19.08;;;5.90;99.90;;;;;;5067694;28;20049;-70
2022/01/27 05:32:59;;;;;;;58.08;18.65;;;5.80;99.90;;;;;;5068381;28;20135;-69
2022/01/27 05:35:25;;;;;;;51.03;19.58;;;5.80;99.90;;;;;;5066000;28;20103;-70
2022/01/27 05:37:51;;;;;;;55.17;20.10;;;5.90;99.90;;;;;;5069672;28;20043;-70
2022/01/27 05:40:17;;;;;;;51.35;19.17;;;5.90;99.90;;;;;;5063049;28;20044;-69
2022/01/27 05:42:42;;;;;;;53.55;19.88;;;5.90;99.90;;;;;;5067548;28;20071;-69
2022/01/27 05:45:09;;;;;;;55.90;21.52;;;5.80;99.90;;;;;;5073793;28;20044;-71
2022/01/27 05:47:35;;;;;;;57.53;20.33;;;5.90;99.90;;;;;;5073447;28;20237;-72
2022/01/27 05:50:00;;;;;;;51.47;20.73;;;5.90;99.90;;;;;;5081368;28;20076;-72
2022/01/27 05:52:26;;;;;;;53.25;19.52;;;6.00;99.90;;;;;;5075141;28;20135;-71
2022/01/27 05:54:52;;;;;;;48.95;18.45;;;5.90;99.90;;;;;;5078087;28;20063;-72
2022/01/27 05:57:18;;;;;;;56.97;18.33;;;5.90;99.90;;;;;;5082019;28;20033;-71
2022/01/27 05:59:44;;;;;;;50.78;19.02;;;5.90;99.90;;;;;;5067844;28;20032;-71
2022/01/27 06:02:09;;;;;;;60.20;20.83;;;5.90;99.90;;;;;;5071582;28;20053;-71
2022/01/27 06:04:35;;;;;;;53.72;20.25;;;6.20;99.90;;;;;;5072078;28;20033;-71
2022/01/27 06:07:00;;;;;;;38.83;15.98;;;5.90;99.90;;;;;;5070997;28;20040;-70
2022/01/27 06:09:26;;;;;;;53.55;19.63;;;6.00;99.90;;;;;;5075291;28;20382;-71
2022/01/27 06:11:52;;;;;;;48.85;20.20;;;6.00;99.90;;;;;;5063885;28;20501;-70
2022/01/27 06:14:18;;;;;;;57.40;19.45;;;6.00;99.90;;;;;;5065876;28;20049;-70
2022/01/27 06:16:45;;;;;;;52.80;19.20;;;6.00;99.90;;;;;;5061833;28;20469;-71
2022/01/27 06:19:11;;;;;;;42.28;18.73;;;6.00;99.90;;;;;;5069408;28;20076;-72
2022/01/27 06:21:37;;;;;;;54.85;19.88;;;6.00;99.90;;;;;;5072106;28;20044;-72
2022/01/27 06:24:03;;;;;;;48.22;17.17;;;6.00;99.90;;;;;;5069512;28;20033;-71
2022/01/27 06:26:29;;;;;;;45.78;17.20;;;6.00;99.90;;;;;;5066734;28;20040;-72
2022/01/27 06:28:56;;;;;;;49.35;18.88;;;6.10;99.90;;;;;;5070630;28;20083;-72
2022/01/27 06:31:22;;;;;;;51.15;19.08;;;7.60;99.90;;;;;;5065490;28;20131;-72
2022/01/27 06:33:48;;;;;;;53.35;18.70;;;6.10;99.90;;;;;;5067855;28;20406;-72
2022/01/27 06:36:13;;;;;;;53.53;17.98;;;6.10;99.90;;;;;;5067067;28;20045;-71
2022/01/27 06:38:39;;;;;;;51.65;17.83;;;6.10;99.90;;;;;;5066868;28;20470;-71
2022/01/27 06:41:05;;;;;;;46.35;17.05;;;6.10;99.90;;;;;;5062816;28;20054;-70
2022/01/27 06:43:31;;;;;;;41.38;16.98;;;6.10;99.90;;;;;;5070625;28;20475;-71
2022/01/27 06:45:56;;;;;;;42.92;17.50;;;6.20;99.90;;;;;;5060934;28;20072;-71
2022/01/27 06:48:22;;;;;;;45.97;17.10;;;6.20;99.90;;;;;;5065613;28;20037;-73
2022/01/27 06:50:53;;;;;;;42.47;16.77;;;6.20;99.90;;;;;;5067849;28;20056;-73
2022/01/27 06:53:19;;;;;;;53.10;17.55;;;6.50;99.90;;;;;;5057907;28;20092;-72
2022/01/27 06:55:44;;;;;;;48.03;17.73;;;6.20;99.90;;;;;;5057453;28;20495;-72
2022/01/27 06:58:10;;;;;;;57.20;18.17;;;6.20;99.90;;;;;;5074621;28;20040;-70
2022/01/27 07:00:36;;;;;;;48.40;18.17;;;6.20;99.90;;;;;;5074578;28;20036;-70
2022/01/27 07:03:01;;;;;;;49.95;17.80;;;6.20;99.90;;;;;;5066165;28;20060;-70
2022/01/27 07:05:30;;;;;;;43.47;16.70;;;6.30;99.90;;;;;;5069222;28;20071;-69
2022/01/27 07:07:56;;;;;;;37.95;15.73;;;6.30;99.90;;;;;;5060983;28;20040;-70
2022/01/27 07:10:22;;;;;;;45.92;18.48;;;6.30;99.90;;;;;;5056139;28;20574;-70
2022/01/27 07:12:47;;;;;;;40.75;16.98;;;6.40;99.90;;;;;;5068683;28;20037;-69
2022/01/27 07:15:13;;;;;;;44.80;16.40;;;6.40;99.90;;;;;;5058719;28;20410;-70
2022/01/27 07:17:39;;;;;;;38.95;15.48;;;6.40;99.90;;;;;;5060880;28;20110;-71
2022/01/27 07:20:06;;;;;;;43.55;16.48;;;6.40;99.90;;;;;;5062362;28;20048;-70
2022/01/27 07:22:42;;;;;;;36.80;14.30;;;6.40;99.90;;;;;;5085546;28;20060;-71
2022/01/27 07:25:08;;;;;;;49.40;15.23;;;6.40;99.90;;;;;;5068114;28;20074;-70
2022/01/27 07:27:34;;;;;;;42.97;16.30;;;6.40;99.90;;;;;;5074050;28;20127;-69
2022/01/27 07:30:00;;;;;;;38.10;15.10;;;6.50;99.90;;;;;;5070945;28;20410;-71
2022/01/27 07:32:26;;;;;;;44.03;14.95;;;6.40;99.90;;;;;;5072492;28;20414;-70
2022/01/27 07:34:52;;;;;;;33.28;14.02;;;6.70;99.90;;;;;;5074776;28;20040;-70
2022/01/27 07:37:17;;;;;;;31.38;14.30;;;6.50;99.90;;;;;;5075707;28;20075;-70
2022/01/27 07:39:43;;;;;;;40.97;14.30;;;6.50;99.90;;;;;;5076323;28;20437;-70
2022/01/27 07:42:09;;;;;;;38.08;13.38;;;6.60;99.90;;;;;;5067354;28;20040;-69
2022/01/27 07:44:35;;;;;;;42.78;14.23;;;6.60;99.90;;;;;;5075902;28;20106;-70
2022/01/27 07:47:00;;;;;;;41.67;14.45;;;6.70;99.90;;;;;;5070614;28;20259;-70
2022/01/27 07:49:26;;;;;;;35.90;14.93;;;6.70;99.90;;;;;;5075087;28;20036;-69
2022/01/27 07:51:52;;;;;;;36.63;14.00;;;6.70;99.90;;;;;;5074571;28;20071;-69
2022/01/27 07:54:18;;;;;;;39.78;15.30;;;6.70;99.90;;;;;;5066185;28;20032;-70
2022/01/27 07:56:43;;;;;;;40.97;14.30;;;6.80;99.90;;;;;;5054951;28;20037;-71
2022/01/27 07:59:09;;;;;;;40.55;15.23;;;6.90;99.90;;;;;;5073924;28;20105;-71
2022/01/27 08:01:35;;;;;;;42.70;14.30;;;6.90;99.90;;;;;;5073328;28;20048;-68
2022/01/27 08:04:00;;;;;;;45.05;15.02;;;6.90;99.90;;;;;;5075787;28;20041;-68
2022/01/27 08:06:26;;;;;;;56.53;15.05;;;6.90;99.90;;;;;;5074230;28;20044;-69
2022/01/27 08:08:52;;;;;;;38.50;13.57;;;7.00;99.90;;;;;;5074259;28;20477;-71
2022/01/27 08:11:19;;;;;;;41.38;11.95;;;7.00;99.90;;;;;;5073620;28;20033;-69
2022/01/27 08:13:45;;;;;;;46.67;12.52;;;7.10;99.90;;;;;;5077340;28;20045;-69
2022/01/27 08:16:11;;;;;;;49.80;14.25;;;7.10;99.90;;;;;;5083624;28;20047;-69
2022/01/27 08:18:37;;;;;;;47.78;13.75;;;7.10;99.90;;;;;;5065557;28;20049;-67
2022/01/27 08:21:03;;;;;;;41.08;13.10;;;7.10;99.90;;;;;;5065014;28;20410;-70
2022/01/27 08:23:29;;;;;;;31.65;12.38;;;7.10;99.90;;;;;;5072312;28;20456;-68
2022/01/27 08:26:07;;;;;;;34.45;11.48;;;7.20;99.90;;;;;;5081069;28;20057;-69
2022/01/27 08:28:40;;;;;;;37.03;11.18;;;7.20;99.90;;;;;;5082051;28;20052;-68
2022/01/27 08:31:06;;;;;;;38.97;12.65;;;7.20;99.90;;;;;;5073145;28;20048;-68
2022/01/27 08:33:33;;;;;;;30.83;10.63;;;7.30;99.90;;;;;;5072698;28;20045;-69
2022/01/27 08:36:00;;;;;;;36.70;12.05;;;7.30;99.90;;;;;;5070107;28;20048;-69
2022/01/27 08:38:27;;;;;;;32.03;11.88;;;7.80;99.90;;;;;;5078011;28;20068;-68
2022/01/27 08:40:52;;;;;;;39.92;10.38;;;7.50;99.90;;;;;;5070565;28;20050;-68
2022/01/27 08:43:18;;;;;;;36.28;10.60;;;7.40;99.90;;;;;;5076742;28;20064;-70
2022/01/27 08:45:45;;;;;;;32.90;9.85;;;7.30;99.90;;;;;;5069091;28;20033;-70
2022/01/27 08:48:13;;;;;;;30.33;9.30;;;7.40;99.90;;;;;;5062777;28;20501;-69
2022/01/27 08:50:39;;;;;;;28.65;9.05;;;7.40;99.90;;;;;;5071550;28;20044;-70
2022/01/27 08:53:05;;;;;;;31.40;9.20;;;7.40;99.90;;;;;;5057761;28;20048;-69
2022/01/27 08:55:30;;;;;;;38.05;8.75;;;7.40;99.90;;;;;;5050633;28;20050;-70
2022/01/27 08:57:56;;;;;;;27.45;9.55;;;7.40;99.90;;;;;;5075893;28;20048;-68
2022/01/27 09:00:22;;;;;;;29.83;8.52;;;7.40;99.90;;;;;;5070378;28;20036;-68
2022/01/27 09:02:48;;;;;;;30.83;7.63;;;7.50;99.90;;;;;;5078614;28;20072;-68
2022/01/27 09:05:14;;;;;;;33.38;9.88;;;7.50;99.90;;;;;;5074894;28;20063;-68
2022/01/27 09:07:40;;;;;;;33.50;8.27;;;7.50;99.90;;;;;;5074522;28;20198;-68
2022/01/27 09:10:06;;;;;;;30.98;8.38;;;7.50;99.90;;;;;;5059454;28;20120;-69
2022/01/27 09:12:32;;;;;;;25.73;8.20;;;7.50;99.90;;;;;;5056502;28;20542;-69
2022/01/27 09:14:59;;;;;;;32.72;7.70;;;7.60;99.90;;;;;;5056096;28;20124;-69
2022/01/27 09:17:26;;;;;;;25.48;8.38;;;7.60;99.90;;;;;;5070345;28;20067;-69
2022/01/27 09:19:52;;;;;;;27.55;8.10;;;7.60;99.90;;;;;;5056439;28;20053;-69
2022/01/27 09:22:19;;;;;;;27.23;7.05;;;7.70;99.90;;;;;;5056565;28;20103;-70
2022/01/27 09:25:04;;;;;;;23.83;7.45;;;7.70;99.90;;;;;;5073336;28;20079;-69
2022/01/27 09:27:29;;;;;;;26.58;6.22;;;7.70;99.90;;;;;;5058647;28;20044;-70
2022/01/27 09:29:55;;;;;;;27.00;6.53;;;7.70;99.90;;;;;;5059236;28;20099;-70
2022/01/27 09:32:21;;;;;;;30.83;5.97;;;7.80;99.90;;;;;;5074903;28;20056;-69
2022/01/27 09:34:47;;;;;;;32.53;6.47;;;7.80;99.90;;;;;;5060480;28;20052;-70
2022/01/27 09:37:13;;;;;;;18.77;6.00;;;7.90;99.90;;;;;;5057561;28;20041;-70
2022/01/27 09:39:39;;;;;;;29.88;6.47;;;7.90;99.90;;;;;;5065553;28;20045;-70
2022/01/27 09:42:06;;;;;;;39.38;6.93;;;7.90;99.90;;;;;;5059307;28;20103;-68
2022/01/27 09:44:33;;;;;;;24.60;5.90;;;7.90;99.90;;;;;;5061941;28;20045;-69
2022/01/27 09:47:04;;;;;;;28.42;6.35;;;8.00;99.90;;;;;;5058876;28;20283;-69
2022/01/27 09:49:34;;;;;;;25.92;5.95;;;8.00;99.90;;;;;;5059833;28;20159;-69
2022/01/27 09:52:01;;;;;;;25.63;6.30;;;8.00;99.90;;;;;;5064321;28;20045;-68
2022/01/27 09:54:27;;;;;;;26.40;6.00;;;8.00;99.90;;;;;;5071249;28;20037;-68
2022/01/27 09:56:56;;;;;;;26.65;5.75;;;8.10;99.90;;;;;;5068941;28;20090;-70
2022/01/27 09:59:23;;;;;;;26.52;6.40;;;8.10;99.90;;;;;;5068530;28;20029;-68
2022/01/27 10:02:03;;;;;;;29.42;7.25;;;8.10;99.90;;;;;;5064980;28;20076;-70
2022/01/27 10:04:50;;;;;;;25.13;5.85;;;8.10;99.90;;;;;;5069893;28;20044;-70
2022/01/27 10:07:28;;;;;;;28.60;5.80;;;8.20;99.90;;;;;;5087876;28;20071;-69
2022/01/27 10:10:10;;;;;;;27.40;6.30;;;8.20;99.90;;;;;;5082957;28;20041;-69
2022/01/27 10:12:49;;;;;;;22.05;4.82;;;8.20;99.90;;;;;;5068546;28;20041;-69
2022/01/27 10:15:19;;;;;;;31.77;5.82;;;8.20;99.90;;;;;;5073151;28;20044;-69
2022/01/27 10:18:26;;;;;;;19.60;5.40;;;8.30;99.90;;;;;;5064907;28;20045;-71
2022/01/27 10:21:00;;;;;;;33.95;5.15;;;8.30;99.90;;;;;;5070614;28;20047;-71
2022/01/27 10:23:30;;;;;;;37.83;5.93;;;8.30;99.90;;;;;;5085225;28;20120;-68
2022/01/27 10:26:13;;;;;;;28.25;5.65;;;8.30;99.90;;;;;;5069507;28;20047;-68
2022/01/27 10:28:59;;;;;;;25.42;5.53;;;8.30;99.90;;;;;;5069065;28;20486;-68
2022/01/27 10:31:26;;;;;;;31.92;6.80;;;8.30;99.90;;;;;;5066743;28;20068;-68
2022/01/27 10:34:02;;;;;;;20.27;5.28;;;8.40;99.90;;;;;;5074760;28;20045;-67
2022/01/27 10:36:31;;;;;;;26.67;4.72;;;8.40;99.90;;;;;;5064580;28;20037;-68
2022/01/27 10:38:57;;;;;;;23.52;4.75;;;8.40;99.90;;;;;;5061008;28;20033;-68
2022/01/27 10:41:27;;;;;;;17.75;4.57;;;8.50;99.90;;;;;;5075225;28;20044;-66
2022/01/27 10:44:11;;;;;;;19.70;4.85;;;8.60;99.90;;;;;;5072734;28;20051;-69
2022/01/27 10:46:44;;;;;;;16.38;5.10;;;8.70;99.90;;;;;;5074884;28;20083;-67
2022/01/27 10:49:19;;;;;;;29.27;5.78;;;8.70;99.90;;;;;;5074555;28;20049;-68
2022/01/27 10:51:49;;;;;;;24.20;4.95;;;8.80;99.90;;;;;;5066911;28;20113;-69
2022/01/27 10:54:25;;;;;;;32.53;6.15;;;8.80;99.90;;;;;;5061356;28;20053;-68
2022/01/27 10:56:51;;;;;;;28.05;4.97;;;8.80;99.90;;;;;;5075173;28;20037;-70
2022/01/27 10:59:19;;;;;;;30.17;5.53;;;8.80;99.90;;;;;;5068351;28;20114;-66
2022/01/27 11:01:48;;;;;;;22.15;4.93;;;8.80;99.90;;;;;;5075777;28;20504;-65
2022/01/27 11:04:14;;;;;;;26.80;5.10;;;8.80;99.90;;;;;;5075410;28;20076;-68
2022/01/27 11:06:55;;;;;;;28.17;5.22;;;8.80;99.90;;;;;;5075392;28;20041;-67
2022/01/27 11:09:20;;;;;;;27.42;5.03;;;8.90;99.90;;;;;;5074102;28;20063;-67
2022/01/27 11:11:49;;;;;;;32.63;5.65;;;8.80;99.90;;;;;;5068500;28;20487;-66
2022/01/27 11:14:15;;;;;;;;;;;8.90;99.90;;;;;;5055878;28;20076;-67
2022/01/27 11:16:43;;;;;;;25.33;5.32;;;8.90;99.90;;;;;;5057813;28;19979;-66
2022/01/27 11:19:26;;;;;;;28.65;5.28;;;9.10;99.90;;;;;;5074838;28;20040;-68
2022/01/27 11:22:01;;;;;;;21.65;4.75;;;9.00;99.90;;;;;;5075071;28;20052;-68
2022/01/27 11:24:44;;;;;;;15.90;4.53;;;9.00;99.90;;;;;;5074022;28;20109;-67
2022/01/27 11:27:12;;;;;;;29.83;4.95;;;9.00;99.90;;;;;;5075849;28;20083;-67
2022/01/27 11:29:49;;;;;;;27.50;4.05;;;9.00;99.90;;;;;;5066263;28;20084;-67
2022/01/27 11:32:27;;;;;;;25.52;4.95;;;9.00;99.90;;;;;;5054374;28;20720;-66
2022/01/27 11:34:55;;;;;;;30.63;5.55;;;9.00;99.90;;;;;;5055223;28;20045;-67
2022/01/27 11:37:51;;;;;;;23.88;4.97;;;9.60;99.90;;;;;;5053381;28;20483;-68
2022/01/27 11:40:20;;;;;;;27.70;5.90;;;9.10;99.90;;;;;;5061241;28;20122;-68
2022/01/27 11:42:54;;;;;;;23.50;4.63;;;9.10;99.90;;;;;;5062501;28;20073;-67
2022/01/27 11:45:20;;;;;;;26.17;5.80;;;9.10;99.90;;;;;;5054852;28;20041;-69
2022/01/27 11:47:53;;;;;;;26.20;4.72;;;9.10;99.90;;;;;;5055080;28;20449;-69
2022/01/27 11:50:37;;;;;;;19.65;3.70;;;9.10;99.90;;;;;;5064971;28;20075;-70
2022/01/27 11:53:05;;;;;;;19.98;4.80;;;9.10;99.90;;;;;;5061108;28;20075;-68
2022/01/27 11:55:34;;;;;;;27.10;4.72;;;9.10;99.90;;;;;;5073852;28;20041;-67
2022/01/27 11:58:18;;;;;;;30.55;4.93;;;9.10;99.90;;;;;;5073756;28;20045;-67
2022/01/27 12:01:10;;;;;;;19.73;4.07;;;9.10;99.90;;;;;;5065238;28;20041;-68
2022/01/27 12:03:36;;;;;;;22.13;4.75;;;9.20;99.90;;;;;;5037085;28;20174;-66
2022/01/27 12:06:20;;;;;;;25.35;4.07;;;9.10;99.90;;;;;;5055038;28;20532;-66
2022/01/27 12:08:46;;;;;;;27.45;4.05;;;9.20;99.90;;;;;;5062086;28;20040;-69
2022/01/27 12:11:49;;;;;;;31.83;4.60;;;9.10;99.90;;;;;;5055615;28;20098;-68
2022/01/27 12:14:18;;;;;;;23.98;4.15;;;9.20;99.90;;;;;;5079834;28;20550;-68
2022/01/27 12:17:04;;;;;;;27.90;4.43;;;9.10;99.90;;;;;;5052531;28;20041;-68
2022/01/27 12:19:56;;;;;;;33.72;4.57;;;9.20;99.90;;;;;;5036044;28;20407;-69
2022/01/27 12:22:50;;;;;;;23.83;4.43;;;9.20;99.90;;;;;;5061331;28;20048;-68
2022/01/27 12:25:17;;;;;;;29.73;4.45;;;9.10;99.90;;;;;;5066103;28;20056;-68
2022/01/27 12:27:50;;;;;;;24.80;4.28;;;9.20;99.90;;;;;;5053759;28;20045;-67
2022/01/27 12:30:16;;;;;;;30.15;4.43;;;9.10;99.90;;;;;;5071843;28;20059;-68
2022/01/27 12:32:42;;;;;;;33.95;4.90;;;9.80;99.90;;;;;;5057483;28;20045;-68
2022/01/27 12:35:14;;;;;;;28.50;5.07;;;9.10;99.90;;;;;;5053024;28;20045;-67
2022/01/27 12:37:41;;;;;;;21.42;3.88;;;9.20;99.90;;;;;;5054067;28;20120;-67
2022/01/27 12:40:08;;;;;;;32.42;4.60;;;9.10;99.90;;;;;;5053743;28;20045;-67
2022/01/27 12:42:39;;;;;;;23.98;4.57;;;9.10;99.90;;;;;;5057955;28;20068;-68
2022/01/27 12:45:10;;;;;;;23.85;4.15;;;9.30;99.90;;;;;;5072991;28;20571;-67
2022/01/27 12:47:40;;;;;;;28.83;4.68;;;9.20;99.90;;;;;;5073584;28;20040;-70
2022/01/27 12:50:12;;;;;;;29.35;5.18;;;9.20;99.90;;;;;;5056380;28;20040;-68
2022/01/27 12:52:42;;;;;;;25.67;4.32;;;9.20;99.90;;;;;;5052228;28;20132;-67
2022/01/27 12:55:11;;;;;;;33.60;5.57;;;9.30;99.90;;;;;;5059007;28;20052;-67
2022/01/27 12:57:38;;;;;;;33.65;5.47;;;9.30;99.90;;;;;;5054492;28;20094;-67
2022/01/27 13:00:06;;;;;;;27.15;4.60;;;9.30;99.90;;;;;;5071366;28;20444;-67
2022/01/27 13:02:32;;;;;;;26.40;4.00;;;9.30;99.90;;;;;;5053166;28;20052;-69
2022/01/27 13:05:00;;;;;;;31.23;4.85;;;9.30;99.90;;;;;;5055139;28;20078;-70
2022/01/27 13:07:28;;;;;;;25.10;4.45;;;9.30;99.90;;;;;;5053295;28;20041;-70
2022/01/27 13:10:03;;;;;;;25.08;4.88;;;9.20;99.90;;;;;;5068598;28;20127;-68
2022/01/27 13:12:35;;;;;;;19.77;4.25;;;9.20;99.90;;;;;;5056294;28;20053;-67
2022/01/27 13:15:10;;;;;;;23.23;5.28;;;9.20;99.90;;;;;;5059726;28;20472;-67
2022/01/27 13:17:44;;;;;;;25.73;4.90;;;9.20;99.90;;;;;;5073271;28;20451;-69
2022/01/27 13:20:21;;;;;;;23.70;4.68;;;9.30;99.90;;;;;;5071910;28;20102;-69
2022/01/27 13:22:50;;;;;;;26.45;4.57;;;9.20;99.90;;;;;;5061419;28;20041;-70